Terminal Aerodrome Forecast
Issued by NWS Blacksburg, VA

Current Version | Previous Version | Text Only | Print | Product List | Glossary Off
Versions: 1 2 3 4 5 6 7 8 9 10 11 12

000
FTUS41 KRNK 110520
TAFBLF
TAF
KBLF 110520Z 1106/1206 27012G20KT P6SM FEW050
     FM111200 28008KT P6SM FEW250
     FM111900 24007KT P6SM FEW100
     FM120000 20007KT P6SM FEW150
     FM120200 21007KT P6SM BKN150 WS020/23035KT=

USA.gov is the U.S. government's official web portal to all federal, state and local government web resources and services.